Time;durP1;ratioP1;P1;durP2;ratioP2;P2;SDS_P1;SDS_P2;PMS_P1;PMS_P2;Temp;Humidity;BMP_temperature;BMP_pressure;BME280_temperature;BME280_humidity;BME280_pressure;Samples;Min_cycle;Max_cycle;Signal;HPM_P1;HPM_P2
2022/02/12 00:00:57;;;;;;;20.85;9.05;;;7.30;56.30;;;;;;5044696;28;19931;-79
2022/02/12 00:03:24;;;;;;;15.68;6.90;;;7.20;56.60;;;;;;5053245;28;20432;-80
2022/02/12 00:05:50;;;;;;;17.02;7.43;;;7.10;56.80;;;;;;5033227;28;20597;-80
2022/02/12 00:08:17;;;;;;;20.20;10.00;;;7.10;57.10;;;;;;5034821;28;20045;-80
2022/02/12 00:10:43;;;;;;;18.27;7.93;;;7.10;57.30;;;;;;5034637;28;20025;-81
2022/02/12 00:13:11;;;;;;;25.33;11.48;;;7.10;57.30;;;;;;5051454;28;20047;-79
2022/02/12 00:15:57;;;;;;;31.00;14.43;;;7.00;57.40;;;;;;5052417;28;20036;-80
2022/02/12 00:18:23;;;;;;;22.50;10.73;;;7.00;57.70;;;;;;5052796;28;20029;-80
2022/02/12 00:20:49;;;;;;;17.52;9.75;;;6.90;57.60;;;;;;5032714;28;20502;-80
2022/02/12 00:23:16;;;;;;;18.48;9.65;;;6.90;57.70;;;;;;5034185;28;20092;-79
2022/02/12 00:25:43;;;;;;;18.80;10.68;;;6.90;57.70;;;;;;5050648;28;20040;-81
2022/02/12 00:28:09;;;;;;;22.08;12.50;;;6.90;57.70;;;;;;5051370;28;20083;-81
2022/02/12 00:30:35;;;;;;;22.25;12.07;;;6.90;57.70;;;;;;5051008;28;20516;-78
2022/02/12 00:33:06;;;;;;;19.40;10.10;;;6.90;57.90;;;;;;5051056;28;20035;-79
2022/02/12 00:35:32;;;;;;;15.70;7.82;;;6.80;58.00;;;;;;5034261;28;20033;-80
2022/02/12 00:37:58;;;;;;;15.00;7.07;;;6.70;58.20;;;;;;5050548;28;20037;-80
2022/02/12 00:40:25;;;;;;;15.38;7.60;;;6.70;58.30;;;;;;5050704;28;20436;-81
2022/02/12 00:42:51;;;;;;;14.75;8.27;;;6.60;58.30;;;;;;5051420;28;20518;-78
2022/02/12 00:45:18;;;;;;;14.90;6.22;;;6.50;58.50;;;;;;5051962;28;20082;-81
2022/02/12 00:47:44;;;;;;;16.05;6.90;;;6.40;58.20;;;;;;5034580;28;20033;-81
2022/02/12 00:50:10;;;;;;;13.82;6.55;;;6.30;59.00;;;;;;5052007;28;20029;-80
2022/02/12 00:52:36;;;;;;;;;;;6.20;59.10;;;;;;5050039;28;20045;-80
2022/02/12 00:55:03;;;;;;;13.95;5.05;;;6.10;58.80;;;;;;5034716;28;19963;-79
2022/02/12 00:57:31;;;;;;;10.32;4.57;;;5.90;58.80;;;;;;5034636;28;20041;-81
2022/02/12 00:59:58;;;;;;;13.55;5.07;;;5.90;60.60;;;;;;5034034;28;20059;-80
2022/02/12 01:02:24;;;;;;;11.40;4.97;;;5.80;60.00;;;;;;5050884;28;20041;-81
2022/02/12 01:04:50;;;;;;;;;;;5.60;60.20;;;;;;5031686;28;20091;-78
2022/02/12 01:07:16;;;;;;;11.65;3.80;;;5.60;59.80;;;;;;5042417;28;19924;-79
2022/02/12 01:09:43;;;;;;;9.10;4.30;;;5.60;59.90;;;;;;5050528;28;20025;-80
2022/02/12 01:12:09;;;;;;;8.10;3.65;;;5.60;59.90;;;;;;5052245;28;20041;-78
2022/02/12 01:14:35;;;;;;;;;;;5.40;60.30;;;;;;5056712;28;20503;-78
2022/02/12 01:17:01;;;;;;;8.30;4.03;;;5.40;60.00;;;;;;5056050;28;19950;-79
2022/02/12 01:19:27;;;;;;;;;;;5.40;60.10;;;;;;5054959;28;20116;-81
2022/02/12 01:21:53;;;;;;;8.80;3.70;;;5.30;60.00;;;;;;5051030;28;20277;-81
2022/02/12 01:24:20;;;;;;;7.05;3.05;;;5.20;60.60;;;;;;5051929;28;20033;-79
2022/02/12 01:26:46;;;;;;;7.20;2.88;;;5.10;61.60;;;;;;5053958;28;20037;-78
2022/02/12 01:29:12;;;;;;;7.72;3.03;;;5.00;62.00;;;;;;5053443;28;20393;-81
2022/02/12 01:31:38;;;;;;;4.90;1.90;;;4.90;62.70;;;;;;5053319;28;20041;-78
2022/02/12 01:34:04;;;;;;;6.32;2.35;;;4.80;63.30;;;;;;5053971;28;20568;-80
2022/02/12 01:36:30;;;;;;;5.25;2.13;;;4.70;63.90;;;;;;5053226;28;20037;-79
2022/02/12 01:38:56;;;;;;;4.53;1.65;;;4.70;64.20;;;;;;5054548;28;20037;-78
2022/02/12 01:41:23;;;;;;;6.32;2.63;;;4.60;64.30;;;;;;5053736;28;20474;-80
2022/02/12 01:43:49;;;;;;;;;;;4.60;64.30;;;;;;5038127;28;20060;-80
2022/02/12 01:46:15;;;;;;;5.13;1.98;;;4.50;63.90;;;;;;5037498;28;19974;-81
2022/02/12 01:48:42;;;;;;;4.95;1.65;;;4.50;64.20;;;;;;5037614;28;20418;-79
2022/02/12 01:51:10;;;;;;;4.55;1.85;;;4.40;64.40;;;;;;5053853;28;20069;-81
2022/02/12 01:53:37;;;;;;;4.50;2.00;;;4.30;64.50;;;;;;5033309;28;20030;-80
2022/02/12 01:56:03;;;;;;;5.40;1.88;;;4.30;64.40;;;;;;5051573;28;20036;-78
2022/02/12 01:58:30;;;;;;;4.45;1.80;;;4.30;64.20;;;;;;5054131;28;20057;-81
2022/02/12 02:00:56;;;;;;;5.68;1.90;;;4.30;64.90;;;;;;5053752;28;20404;-80
2022/02/12 02:03:22;;;;;;;6.47;2.15;;;4.20;64.90;;;;;;5037470;28;20385;-78
2022/02/12 02:05:48;;;;;;;6.15;2.20;;;4.30;64.90;;;;;;5053547;28;20124;-78
2022/02/12 02:08:14;;;;;;;6.88;2.00;;;4.20;64.80;;;;;;5036127;28;20068;-78
2022/02/12 02:10:40;;;;;;;;;;;4.20;64.50;;;;;;5053948;28;20060;-78
2022/02/12 02:13:06;;;;;;;5.60;2.30;;;4.10;64.60;;;;;;5053873;28;19920;-78
2022/02/12 02:15:32;;;;;;;6.22;2.25;;;4.00;65.10;;;;;;5053387;28;20108;-80
2022/02/12 02:17:59;;;;;;;5.43;2.47;;;4.00;65.20;;;;;;5037114;28;20120;-81
2022/02/12 02:20:25;;;;;;;5.65;2.30;;;3.90;65.90;;;;;;5036615;28;20037;-80
2022/02/12 02:22:57;;;;;;;6.30;2.45;;;3.90;66.30;;;;;;5052638;28;20045;-79
2022/02/12 02:25:24;;;;;;;5.55;1.80;;;3.80;66.60;;;;;;5052669;28;20078;-81
2022/02/12 02:27:52;;;;;;;4.15;1.90;;;3.80;66.50;;;;;;5053719;28;20091;-81
2022/02/12 02:30:21;;;;;;;6.13;2.10;;;3.70;66.60;;;;;;5053120;28;20064;-79
2022/02/12 02:32:56;;;;;;;5.28;2.20;;;3.70;67.20;;;;;;5054970;28;20128;-79
2022/02/12 02:35:22;;;;;;;4.70;1.75;;;3.60;67.90;;;;;;5036280;28;20037;-81
2022/02/12 02:37:49;;;;;;;5.38;1.90;;;3.60;67.90;;;;;;5052615;28;20044;-81
2022/02/12 02:40:37;;;;;;;6.38;2.47;;;3.50;67.90;;;;;;5052747;28;20067;-78
2022/02/12 02:43:04;;;;;;;5.18;2.17;;;3.50;68.20;;;;;;5053136;28;20083;-80
2022/02/12 02:45:30;;;;;;;6.00;2.17;;;3.50;67.40;;;;;;5052721;28;20047;-78
2022/02/12 02:48:15;;;;;;;5.78;1.98;;;3.50;67.90;;;;;;5036350;28;20036;-81
2022/02/12 02:56:12;;;;;;;6.78;2.33;;;3.40;68.30;;;;;;5052939;28;20040;-80
2022/02/12 02:58:59;;;;;;;4.63;1.98;;;3.50;67.80;;;;;;5036367;28;20124;-78
2022/02/12 03:04:11;;;;;;;5.28;1.85;;;3.50;67.00;;;;;;5052968;28;20040;-77
2022/02/12 03:06:38;;;;;;;5.00;1.80;;;3.60;67.20;;;;;;5035704;28;20041;-80
2022/02/12 03:09:04;;;;;;;6.05;2.13;;;3.60;67.20;;;;;;5035436;28;20064;-78
2022/02/12 03:11:30;;;;;;;6.80;2.28;;;3.60;67.10;;;;;;5036027;28;20082;-80
2022/02/12 03:13:56;;;;;;;5.35;2.20;;;3.60;67.40;;;;;;5035992;28;20040;-78
2022/02/12 03:16:22;;;;;;;6.05;2.38;;;3.60;67.10;;;;;;5035645;28;20072;-81
2022/02/12 03:18:49;;;;;;;5.35;1.90;;;3.50;66.40;;;;;;5035833;28;20029;-81
2022/02/12 03:21:15;;;;;;;;;;;3.50;66.50;;;;;;5052626;28;20116;-80
2022/02/12 03:23:42;;;;;;;5.70;2.00;;;3.50;66.70;;;;;;5034884;28;19920;-78
2022/02/12 03:26:09;;;;;;;6.70;2.42;;;3.40;66.20;;;;;;5035414;28;20033;-79
2022/02/12 03:28:36;;;;;;;5.70;2.00;;;3.50;67.10;;;;;;5052421;28;20029;-79
2022/02/12 03:31:02;;;;;;;7.60;2.38;;;3.50;67.20;;;;;;5035220;28;20040;-78
2022/02/12 03:33:28;;;;;;;;;;;3.40;68.10;;;;;;5036183;28;20040;-81
2022/02/12 03:35:55;;;;;;;5.90;2.17;;;3.40;66.90;;;;;;5051568;28;19962;-78
2022/02/12 03:38:24;;;;;;;;;;;3.30;67.20;;;;;;5035260;28;20401;-78
2022/02/12 03:40:56;;;;;;;5.88;1.73;;;3.30;66.70;;;;;;5051683;28;20293;-81
2022/02/12 03:43:23;;;;;;;3.83;1.60;;;3.30;66.90;;;;;;5036062;28;20052;-79
2022/02/12 03:45:49;;;;;;;6.32;2.20;;;3.30;67.20;;;;;;5051609;28;20035;-78
2022/02/12 03:48:15;;;;;;;4.35;1.70;;;3.30;67.30;;;;;;5035402;28;20481;-81
2022/02/12 03:50:42;;;;;;;5.45;2.20;;;3.30;67.30;;;;;;5051355;28;20033;-78
2022/02/12 03:53:10;;;;;;;5.32;2.00;;;3.20;67.20;;;;;;5051058;28;20044;-79
2022/02/12 03:55:39;;;;;;;7.55;2.60;;;3.30;67.10;;;;;;5051593;28;20033;-81
2022/02/12 03:58:09;;;;;;;6.32;2.42;;;3.30;67.00;;;;;;5035418;28;20025;-78
2022/02/12 04:00:38;;;;;;;4.78;1.90;;;3.30;67.00;;;;;;5051606;28;20080;-81
2022/02/12 04:03:04;;;;;;;6.65;2.20;;;3.40;66.70;;;;;;5035409;28;20031;-78
2022/02/12 04:05:30;;;;;;;;;;;3.40;66.10;;;;;;5051689;28;20025;-79
2022/02/12 04:07:57;;;;;;;5.05;1.90;;;3.40;66.30;;;;;;5034168;28;19920;-79
2022/02/12 04:10:23;;;;;;;4.82;1.92;;;3.40;66.40;;;;;;5052437;28;20032;-78
2022/02/12 04:12:51;;;;;;;8.23;1.90;;;3.20;67.00;;;;;;5051522;28;20068;-78
2022/02/12 04:15:23;;;;;;;5.30;1.88;;;3.20;67.60;;;;;;5051330;28;20025;-80
2022/02/12 04:17:49;;;;;;;6.28;2.13;;;3.20;67.40;;;;;;5035123;28;20094;-80
2022/02/12 04:20:19;;;;;;;5.18;1.98;;;3.30;67.40;;;;;;5051038;28;20125;-80
2022/02/12 04:22:46;;;;;;;5.40;1.58;;;3.30;67.20;;;;;;5050869;28;20501;-81
2022/02/12 04:25:16;;;;;;;4.95;1.73;;;3.20;67.10;;;;;;5034559;28;20033;-80
2022/02/12 04:27:43;;;;;;;6.03;1.77;;;3.20;67.20;;;;;;5035052;28;20064;-81
2022/02/12 04:30:11;;;;;;;5.53;1.85;;;3.20;67.10;;;;;;5034499;28;20401;-80
2022/02/12 04:32:39;;;;;;;4.80;2.03;;;3.20;67.20;;;;;;5051757;28;20029;-80
2022/02/12 04:35:08;;;;;;;5.78;1.98;;;3.20;67.10;;;;;;5034702;28;20033;-80
2022/02/12 04:37:34;;;;;;;5.03;1.92;;;3.20;67.00;;;;;;5051668;28;20116;-81
2022/02/12 04:40:01;;;;;;;3.83;1.85;;;3.30;66.90;;;;;;5033918;28;20029;-79
2022/02/12 04:42:27;;;;;;;5.38;2.10;;;3.30;66.70;;;;;;5034536;28;20036;-78
2022/02/12 04:44:54;;;;;;;7.53;2.80;;;3.40;66.70;;;;;;5034622;28;20025;-80
2022/02/12 04:47:22;;;;;;;5.05;2.28;;;3.30;66.00;;;;;;5036111;28;20048;-80
2022/02/12 04:49:50;;;;;;;12.13;3.35;;;3.40;66.20;;;;;;5055400;28;20029;-78
2022/02/12 04:52:19;;;;;;;8.55;3.28;;;3.40;66.00;;;;;;5038668;28;20127;-78
2022/02/12 04:54:45;;;;;;;6.30;2.42;;;3.40;66.00;;;;;;5054373;28;20029;-80
2022/02/12 04:57:11;;;;;;;;;;;3.40;65.30;;;;;;5057147;28;20116;-78
2022/02/12 04:59:38;;;;;;;5.50;2.55;;;3.40;65.00;;;;;;5055137;28;19917;-78
2022/02/12 05:02:05;;;;;;;9.45;3.42;;;3.40;65.40;;;;;;5055005;28;20033;-80
2022/02/12 05:04:31;;;;;;;9.30;4.03;;;3.50;65.00;;;;;;5055069;28;20033;-78
2022/02/12 05:06:58;;;;;;;10.15;4.70;;;3.40;64.90;;;;;;5038239;28;20037;-79
2022/02/12 05:09:24;;;;;;;17.33;7.82;;;3.40;65.70;;;;;;5054013;28;20037;-79
2022/02/12 05:11:51;;;;;;;19.10;7.22;;;3.40;65.60;;;;;;5054675;28;20051;-78
2022/02/12 05:14:19;;;;;;;12.50;5.65;;;3.40;65.50;;;;;;5038334;28;20155;-79
2022/02/12 05:16:46;;;;;;;8.88;4.20;;;3.40;65.40;;;;;;5055824;28;20063;-81
2022/02/12 05:19:12;;;;;;;12.25;4.72;;;3.40;64.90;;;;;;5054897;28;20082;-81
2022/02/12 05:21:40;;;;;;;7.70;3.58;;;3.40;65.50;;;;;;5037730;28;20428;-79
2022/02/12 05:24:06;;;;;;;7.68;3.72;;;3.40;65.60;;;;;;5053905;28;20082;-79
2022/02/12 05:26:33;;;;;;;6.80;3.25;;;3.40;65.40;;;;;;5054556;28;20041;-80
2022/02/12 05:28:59;;;;;;;;;;;3.40;64.70;;;;;;5055141;28;20041;-81
2022/02/12 05:31:25;;;;;;;8.00;3.50;;;3.50;65.20;;;;;;5037804;28;19925;-78
2022/02/12 05:33:51;;;;;;;9.75;3.78;;;3.50;65.00;;;;;;5054784;28;20032;-81
2022/02/12 05:36:17;;;;;;;13.30;4.53;;;3.50;65.00;;;;;;5037476;28;20044;-79
2022/02/12 05:38:43;;;;;;;7.28;3.65;;;3.50;65.00;;;;;;5037170;28;20032;-78
2022/02/12 05:41:12;;;;;;;9.57;3.20;;;3.50;64.40;;;;;;5037566;28;20041;-79
2022/02/12 05:43:40;;;;;;;8.10;3.35;;;3.50;64.80;;;;;;5054887;28;20391;-81
2022/02/12 05:46:07;;;;;;;7.70;3.78;;;3.50;64.70;;;;;;5054034;28;20041;-81
2022/02/12 05:48:34;;;;;;;9.57;4.35;;;3.50;64.70;;;;;;5054392;28;20036;-78
2022/02/12 05:51:01;;;;;;;9.02;4.10;;;3.60;64.60;;;;;;5054002;28;20029;-81
2022/02/12 05:53:27;;;;;;;9.02;4.00;;;3.60;64.60;;;;;;5036829;28;20031;-80
2022/02/12 05:55:53;;;;;;;9.48;4.25;;;3.60;64.70;;;;;;5053402;28;20124;-81
2022/02/12 05:58:21;;;;;;;15.30;5.55;;;3.60;64.60;;;;;;5054121;28;20501;-79
2022/02/12 06:00:48;;;;;;;15.90;6.22;;;3.60;64.40;;;;;;5053195;28;20118;-78
2022/02/12 06:03:14;;;;;;;29.77;6.43;;;3.60;64.60;;;;;;5055214;28;20092;-78
2022/02/12 06:05:40;;;;;;;15.95;5.50;;;3.60;64.60;;;;;;5054628;28;20029;-81
2022/02/12 06:08:07;;;;;;;17.00;7.40;;;3.60;64.70;;;;;;5037341;28;20033;-78
2022/02/12 06:10:33;;;;;;;12.27;5.82;;;3.60;64.80;;;;;;5053776;28;20056;-82
2022/02/12 06:12:59;;;;;;;12.00;5.05;;;3.50;64.60;;;;;;5037130;28;20036;-78
2022/02/12 06:15:27;;;;;;;8.35;3.85;;;3.50;64.20;;;;;;5053320;28;20029;-81
2022/02/12 06:17:53;;;;;;;13.13;4.22;;;3.50;64.80;;;;;;5036998;28;20087;-81
2022/02/12 06:20:19;;;;;;;11.65;4.03;;;3.60;64.80;;;;;;5053208;28;20057;-78
2022/02/12 06:22:46;;;;;;;9.18;4.00;;;3.60;64.70;;;;;;5055462;28;20036;-77
2022/02/12 06:25:12;;;;;;;8.02;4.00;;;3.60;64.70;;;;;;5035636;28;20067;-78
2022/02/12 06:27:38;;;;;;;11.40;3.15;;;3.60;64.60;;;;;;5037228;28;20033;-78
2022/02/12 06:30:05;;;;;;;8.98;3.42;;;3.60;63.80;;;;;;5036884;28;20025;-81
2022/02/12 06:32:32;;;;;;;9.75;3.40;;;3.60;64.30;;;;;;5053286;28;20040;-81
2022/02/12 06:35:00;;;;;;;12.50;6.75;;;3.70;64.40;;;;;;5036723;28;20029;-78
2022/02/12 06:37:46;;;;;;;11.93;5.53;;;3.70;63.90;;;;;;5054144;28;20552;-79
2022/02/12 06:40:13;;;;;;;11.35;5.47;;;3.80;64.20;;;;;;5052171;28;20033;-80
2022/02/12 06:42:39;;;;;;;10.20;4.07;;;3.80;64.00;;;;;;5037069;28;20049;-78
2022/02/12 06:45:06;;;;;;;8.60;4.05;;;3.90;64.10;;;;;;5053118;28;20051;-80
2022/02/12 06:47:32;;;;;;;11.98;4.72;;;3.90;63.90;;;;;;5053180;28;20075;-78
2022/02/12 06:49:59;;;;;;;10.13;4.93;;;3.90;63.90;;;;;;5053414;28;20032;-80
2022/02/12 06:52:25;;;;;;;13.13;6.90;;;4.00;64.00;;;;;;5036340;28;20052;-79
2022/02/12 06:54:51;;;;;;;14.77;7.10;;;4.10;63.80;;;;;;5052485;28;20086;-81
2022/02/12 06:57:17;;;;;;;;;;;4.10;63.70;;;;;;5053236;28;20063;-81
2022/02/12 06:59:44;;;;;;;14.85;8.38;;;4.20;63.40;;;;;;5052556;28;19917;-79
2022/02/12 07:02:10;;;;;;;15.18;8.43;;;4.20;63.20;;;;;;5036048;28;20043;-81
2022/02/12 07:04:36;;;;;;;12.63;7.90;;;4.30;63.30;;;;;;5036364;28;20370;-81
2022/02/12 07:07:03;;;;;;;41.00;17.92;;;4.30;63.30;;;;;;5052622;28;20037;-78
2022/02/12 07:09:29;;;;;;;77.95;27.52;;;4.40;63.10;;;;;;5051338;28;20040;-79
2022/02/12 07:11:55;;;;;;;45.42;19.45;;;4.40;63.20;;;;;;5035668;28;20037;-80
2022/02/12 07:14:21;;;;;;;37.83;14.77;;;4.50;63.20;;;;;;5052771;28;20032;-79
2022/02/12 07:16:47;;;;;;;28.70;12.85;;;4.50;63.20;;;;;;5052393;28;20116;-80
2022/02/12 07:19:13;;;;;;;37.60;15.70;;;4.60;63.10;;;;;;5035953;28;20044;-80
2022/02/12 07:21:39;;;;;;;41.25;16.85;;;4.60;63.00;;;;;;5035464;28;20068;-80
2022/02/12 07:24:06;;;;;;;29.25;13.18;;;4.70;63.00;;;;;;5052582;28;20052;-81
2022/02/12 07:26:32;;;;;;;24.08;11.32;;;4.80;62.20;;;;;;5034944;28;20124;-77
2022/02/12 07:28:58;;;;;;;30.45;12.52;;;4.80;62.70;;;;;;5035741;28;20032;-80
2022/02/12 07:31:24;;;;;;;16.15;9.02;;;4.90;62.90;;;;;;5052188;28;20398;-79
2022/02/12 07:33:51;;;;;;;17.23;8.75;;;4.90;62.80;;;;;;5036010;28;20053;-81
2022/02/12 07:36:17;;;;;;;19.20;9.93;;;5.00;62.70;;;;;;5051926;28;20100;-78
2022/02/12 07:38:43;;;;;;;18.48;10.40;;;5.10;62.80;;;;;;5052222;28;20032;-78
2022/02/12 07:41:09;;;;;;;19.52;12.15;;;5.20;62.10;;;;;;5034331;28;20321;-78
2022/02/12 07:43:35;;;;;;;;;;;5.20;62.60;;;;;;5052763;28;20567;-81
2022/02/12 07:46:03;;;;;;;21.77;13.05;;;5.20;62.40;;;;;;5034987;28;19925;-80
2022/02/12 07:48:29;;;;;;;24.52;14.82;;;5.30;62.20;;;;;;5035250;28;20168;-80
2022/02/12 07:50:55;;;;;;;24.48;11.60;;;5.30;62.30;;;;;;5051443;28;20079;-78
2022/02/12 07:53:22;;;;;;;17.02;7.72;;;5.40;62.30;;;;;;5053093;28;20033;-78
2022/02/12 07:55:48;;;;;;;16.65;6.97;;;5.40;61.80;;;;;;5050309;28;20043;-78
2022/02/12 07:58:14;;;;;;;;;;;5.40;62.50;;;;;;5053519;28;20068;-79
2022/02/12 08:00:40;;;;;;;12.65;6.95;;;5.60;62.40;;;;;;5051184;28;19916;-79
2022/02/12 08:03:06;;;;;;;12.63;7.30;;;5.80;61.90;;;;;;5051761;28;20103;-81
2022/02/12 08:05:32;;;;;;;18.50;10.07;;;6.00;61.70;;;;;;5052522;28;20061;-79
2022/02/12 08:08:03;;;;;;;27.02;11.07;;;6.10;61.80;;;;;;5034994;28;20036;-78
2022/02/12 08:13:14;;;;;;;17.00;7.63;;;6.20;61.40;;;;;;5052781;28;20466;-79
2022/02/12 08:15:40;;;;;;;15.18;6.70;;;6.30;62.30;;;;;;5034659;28;20398;-81
2022/02/12 08:18:07;;;;;;;15.05;6.90;;;6.40;60.60;;;;;;5051879;28;20040;-80
2022/02/12 08:20:33;;;;;;;15.32;7.45;;;6.50;61.00;;;;;;5050951;28;20405;-79
2022/02/12 08:22:59;;;;;;;13.77;7.88;;;6.60;60.90;;;;;;5034129;28;20591;-80
2022/02/12 08:25:25;;;;;;;18.30;8.85;;;6.70;60.80;;;;;;5050217;28;20111;-79
2022/02/12 08:27:52;;;;;;;14.15;8.30;;;6.70;60.80;;;;;;5051437;28;20049;-80
2022/02/12 08:30:18;;;;;;;;;;;6.70;60.70;;;;;;5034949;28;20025;-80
2022/02/12 08:32:44;;;;;;;18.38;10.27;;;6.80;60.80;;;;;;5051782;28;19921;-80
2022/02/12 08:35:13;;;;;;;19.67;10.07;;;6.90;60.20;;;;;;5034426;28;20029;-80
2022/02/12 08:37:42;;;;;;;21.83;10.45;;;7.10;60.00;;;;;;5051512;28;20443;-79
2022/02/12 08:40:11;;;;;;;18.42;10.23;;;7.10;60.00;;;;;;5050146;28;20040;-79
2022/02/12 08:42:40;;;;;;;20.80;13.10;;;7.20;59.80;;;;;;5034683;28;20127;-80
2022/02/12 08:45:08;;;;;;;90.07;34.08;;;7.40;59.80;;;;;;5034716;28;20429;-79
2022/02/12 08:47:35;;;;;;;14.38;8.05;;;7.40;59.50;;;;;;5034607;28;20091;-81
2022/02/12 08:50:01;;;;;;;19.08;8.02;;;7.50;59.10;;;;;;5051241;28;20070;-81
2022/02/12 08:52:29;;;;;;;11.57;5.03;;;7.60;59.60;;;;;;5051169;28;20076;-79
2022/02/12 08:54:55;;;;;;;13.90;7.93;;;7.60;59.60;;;;;;5034138;28;20367;-79
2022/02/12 08:57:21;;;;;;;;;;;7.60;59.50;;;;;;5051276;28;20068;-80
2022/02/12 08:59:47;;;;;;;23.77;9.30;;;7.70;59.10;;;;;;5050433;28;20011;-79
2022/02/12 09:02:14;;;;;;;22.25;12.77;;;7.80;59.30;;;;;;5048863;28;20059;-79
2022/02/12 09:04:41;;;;;;;17.55;10.52;;;7.90;58.60;;;;;;5032902;28;20094;-80
2022/02/12 09:07:07;;;;;;;75.45;26.13;;;8.00;58.70;;;;;;5034102;28;20034;-79
2022/02/12 09:09:34;;;;;;;;;;;8.20;58.10;;;;;;5051529;28;20103;-81
2022/02/12 09:12:00;;;;;;;18.20;8.57;;;8.20;58.20;;;;;;5032833;28;19971;-82
2022/02/12 09:14:27;;;;;;;25.15;12.68;;;8.30;58.10;;;;;;5034179;28;20033;-79
2022/02/12 09:16:53;;;;;;;;;;;8.40;57.50;;;;;;5034561;28;20478;-80
2022/02/12 09:19:20;;;;;;;30.73;15.05;;;8.60;58.20;;;;;;5034321;28;19920;-81
2022/02/12 09:21:46;;;;;;;37.63;18.23;;;8.70;57.30;;;;;;5033920;28;20067;-79
2022/02/12 09:24:13;;;;;;;20.00;11.10;;;8.90;57.20;;;;;;5034199;28;20061;-79
2022/02/12 09:26:40;;;;;;;18.20;9.45;;;9.70;56.70;;;;;;5049610;28;20044;-81
2022/02/12 09:29:07;;;;;;;13.07;6.85;;;11.20;54.30;;;;;;5050801;28;20079;-81
2022/02/12 09:31:34;;;;;;;19.42;10.40;;;11.90;52.70;;;;;;5043350;28;20487;-80
2022/02/12 09:34:00;;;;;;;21.30;11.27;;;12.60;51.20;;;;;;5042969;28;20048;-81
2022/02/12 09:36:27;;;;;;;;;;;12.90;51.20;;;;;;5042461;28;20482;-80
2022/02/12 09:38:53;;;;;;;12.18;6.38;;;14.20;50.60;;;;;;5043075;28;20130;-81
2022/02/12 09:41:23;;;;;;;9.45;4.13;;;15.50;45.60;;;;;;5049717;28;20545;-81
2022/02/12 09:43:53;;;;;;;12.38;4.88;;;17.50;40.90;;;;;;5053466;28;20061;-79
2022/02/12 09:46:45;;;;;;;7.88;3.58;;;18.70;36.70;;;;;;5053781;28;20061;-80
2022/02/12 09:49:12;;;;;;;6.88;3.15;;;19.10;36.00;;;;;;5053338;28;20037;-80
2022/02/12 09:51:40;;;;;;;8.95;3.83;;;20.30;33.90;;;;;;5053849;28;20164;-80
2022/02/12 09:54:06;;;;;;;6.82;3.58;;;19.50;33.20;;;;;;5033588;28;20025;-80
2022/02/12 09:56:35;;;;;;;10.15;4.43;;;18.20;37.20;;;;;;5042556;28;20037;-81
2022/02/12 09:59:01;;;;;;;6.88;3.40;;;17.40;38.60;;;;;;5054022;28;20028;-80
2022/02/12 10:01:27;;;;;;;;;;;16.90;38.40;;;;;;5037407;28;20500;-82
2022/02/12 10:03:53;;;;;;;9.52;3.92;;;16.90;41.20;;;;;;5037301;28;19912;-81
2022/02/12 10:06:59;;;;;;;6.90;4.10;;;16.80;38.50;;;;;;5053644;28;20041;-80
2022/02/12 10:09:26;;;;;;;11.15;5.20;;;17.00;37.80;;;;;;5054920;28;20108;-80
2022/02/12 10:11:54;;;;;;;;;;;17.50;36.20;;;;;;5053191;28;20040;-81
2022/02/12 10:14:39;;;;;;;9.50;4.78;;;17.40;38.20;;;;;;5037644;28;19913;-79
2022/02/12 10:17:06;;;;;;;12.73;6.32;;;17.10;36.00;;;;;;5054638;28;20390;-80
2022/02/12 10:19:51;;;;;;;12.88;5.68;;;16.70;36.10;;;;;;5053738;28;20029;-81
2022/02/12 10:22:19;;;;;;;10.85;5.60;;;16.70;36.00;;;;;;5037026;28;20052;-81
2022/02/12 10:25:04;;;;;;;8.18;4.63;;;16.80;34.50;;;;;;5054905;28;20367;-80
2022/02/12 10:27:31;;;;;;;8.25;4.30;;;16.50;34.50;;;;;;5052616;28;20071;-81
2022/02/12 10:30:03;;;;;;;12.25;5.00;;;16.30;34.30;;;;;;5035869;28;20370;-80
2022/02/12 10:32:29;;;;;;;8.02;4.53;;;16.10;34.40;;;;;;5037584;28;20045;-79
2022/02/12 10:34:59;;;;;;;13.38;7.72;;;15.90;35.00;;;;;;5053218;28;20036;-77
2022/02/12 10:37:26;;;;;;;14.10;6.78;;;15.80;34.70;;;;;;5052889;28;20069;-78
2022/02/12 10:40:14;;;;;;;11.13;5.75;;;15.80;34.60;;;;;;5036526;28;20072;-79
2022/02/12 10:42:44;;;;;;;9.02;4.95;;;16.10;34.80;;;;;;5052577;28;20061;-79
2022/02/12 10:45:31;;;;;;;8.32;4.72;;;16.70;33.40;;;;;;5051923;28;20047;-77
2022/02/12 10:47:59;;;;;;;8.57;4.60;;;16.40;32.90;;;;;;5053146;28;20045;-79
2022/02/12 10:50:45;;;;;;;8.77;4.55;;;16.20;33.60;;;;;;5052089;28;20036;-79
2022/02/12 10:53:11;;;;;;;10.73;5.35;;;15.90;34.40;;;;;;5052796;28;20111;-80
2022/02/12 10:58:25;;;;;;;7.00;3.38;;;15.50;33.80;;;;;;5052764;28;20037;-77
2022/02/12 11:00:51;;;;;;;8.90;4.13;;;15.90;33.00;;;;;;5035567;28;20509;-77
2022/02/12 11:03:20;;;;;;;6.47;3.13;;;15.80;32.80;;;;;;5036185;28;20128;-77
2022/02/12 11:06:10;;;;;;;7.30;4.38;;;15.60;32.90;;;;;;5035965;28;20033;-78
2022/02/12 11:08:37;;;;;;;7.60;3.28;;;15.30;33.10;;;;;;5053857;28;20102;-78
2022/02/12 11:11:03;;;;;;;8.70;4.35;;;15.90;32.10;;;;;;5053044;28;20033;-79
2022/02/12 11:13:29;;;;;;;;;;;15.60;31.40;;;;;;5036052;28;20029;-77
2022/02/12 11:15:55;;;;;;;9.40;3.40;;;15.60;32.70;;;;;;5053245;28;19970;-79
2022/02/12 11:18:24;;;;;;;7.35;3.47;;;15.50;32.30;;;;;;5035852;28;20098;-79
2022/02/12 11:20:55;;;;;;;8.27;3.70;;;16.00;31.70;;;;;;5051744;28;20033;-78
2022/02/12 11:23:21;;;;;;;6.65;3.20;;;17.90;28.60;;;;;;5036125;28;20029;-79
2022/02/12 11:26:19;;;;;;;11.07;4.43;;;18.70;27.90;;;;;;5051891;28;20094;-78
2022/02/12 11:28:46;;;;;;;10.48;4.63;;;18.80;26.90;;;;;;5052389;28;20515;-77
2022/02/12 11:31:31;;;;;;;9.05;4.43;;;19.20;26.80;;;;;;5051875;28;20119;-78
2022/02/12 11:34:19;;;;;;;11.10;5.00;;;21.30;24.80;;;;;;5052192;28;20032;-78
2022/02/12 11:36:46;;;;;;;6.72;3.33;;;20.00;25.50;;;;;;5050457;28;20068;-80
2022/02/12 11:39:18;;;;;;;9.02;4.38;;;18.60;27.00;;;;;;5053122;28;20021;-78
2022/02/12 11:41:46;;;;;;;13.75;6.78;;;17.50;27.60;;;;;;5050866;28;20049;-78
2022/02/12 11:44:50;;;;;;;10.07;5.45;;;16.60;29.10;;;;;;5053176;28;20025;-78
2022/02/12 11:47:16;;;;;;;12.95;5.57;;;15.90;29.60;;;;;;5053146;28;20072;-78
2022/02/12 11:49:44;;;;;;;8.60;3.60;;;16.40;29.80;;;;;;5053011;28;20386;-78
2022/02/12 11:52:30;;;;;;;13.18;5.35;;;16.40;29.50;;;;;;5051513;28;20037;-77
2022/02/12 11:55:00;;;;;;;11.25;4.97;;;16.40;30.00;;;;;;5053312;28;20501;-78
2022/02/12 11:57:26;;;;;;;14.18;7.68;;;17.10;29.60;;;;;;5050410;28;20040;-77
2022/02/12 12:00:12;;;;;;;20.52;9.48;;;17.30;29.40;;;;;;5051602;28;20060;-77
2022/02/12 12:02:51;;;;;;;20.92;9.88;;;17.60;29.40;;;;;;5053313;28;20091;-77
2022/02/12 12:05:26;;;;;;;18.17;10.73;;;17.50;29.20;;;;;;5051513;28;20036;-78
2022/02/12 12:08:12;;;;;;;31.25;18.75;;;17.70;29.20;;;;;;5035444;28;20049;-77
2022/02/12 12:11:15;;;;;;;85.60;53.58;;;18.90;28.00;;;;;;5034383;28;20036;-77
2022/02/12 12:13:44;;;;;;;40.05;25.35;;;18.70;27.90;;;;;;5050805;28;20041;-78
2022/02/12 12:16:33;;;;;;;10.25;6.38;;;17.50;28.90;;;;;;5051232;28;20033;-77
2022/02/12 12:19:01;;;;;;;12.15;6.13;;;16.50;29.90;;;;;;5051495;28;20382;-77
2022/02/12 12:21:30;;;;;;;12.30;6.25;;;15.60;30.80;;;;;;5051193;28;20032;-77
2022/02/12 12:23:59;;;;;;;14.82;7.05;;;15.10;31.60;;;;;;5052598;28;20029;-77
2022/02/12 12:26:46;;;;;;;14.35;6.85;;;14.60;32.30;;;;;;5050863;28;20033;-77
2022/02/12 12:32:22;;;;;;;12.32;5.28;;;14.20;32.80;;;;;;5052237;28;20414;-77
2022/02/12 12:35:08;;;;;;;29.27;17.98;;;14.10;33.20;;;;;;5061209;28;20036;-77
2022/02/12 12:37:55;;;;;;;18.45;8.93;;;14.50;32.70;;;;;;5046523;28;20142;-78
2022/02/12 12:40:40;;;;;;;15.25;7.10;;;15.50;31.70;;;;;;5033361;28;20437;-78
2022/02/12 12:43:08;;;;;;;10.35;4.00;;;16.40;30.50;;;;;;5041156;28;20390;-77
2022/02/12 12:45:52;;;;;;;9.10;3.17;;;16.80;29.60;;;;;;5050618;28;20088;-78
2022/02/12 12:48:33;;;;;;;8.07;4.38;;;17.60;28.80;;;;;;5051256;28;20025;-78
2022/02/12 12:50:59;;;;;;;11.48;5.60;;;18.30;28.50;;;;;;5050832;28;20045;-78
2022/02/12 12:53:26;;;;;;;7.93;3.47;;;19.50;27.00;;;;;;5051278;28;20040;-78
2022/02/12 12:55:52;;;;;;;7.18;2.20;;;21.10;25.10;;;;;;5050694;28;20052;-77
2022/02/12 12:58:18;;;;;;;5.35;2.38;;;22.80;22.40;;;;;;5030238;28;20036;-77
2022/02/12 13:00:45;;;;;;;5.97;2.30;;;23.90;21.80;;;;;;5030461;28;20041;-77
2022/02/12 13:03:11;;;;;;;6.90;3.25;;;25.40;20.10;;;;;;5031231;28;20045;-77
2022/02/12 13:05:38;;;;;;;5.18;1.98;;;27.20;18.30;;;;;;5030558;28;20028;-77
2022/02/12 13:08:07;;;;;;;21.52;9.63;;;28.30;17.40;;;;;;5034633;28;20493;-79
2022/02/12 13:10:55;;;;;;;8.25;2.90;;;28.90;15.30;;;;;;5035650;28;20036;-78
2022/02/12 13:13:21;;;;;;;7.15;2.67;;;25.90;16.70;;;;;;5053966;28;20502;-78
2022/02/12 13:15:48;;;;;;;9.18;4.65;;;22.90;20.70;;;;;;5055504;28;20060;-77
2022/02/12 13:18:15;;;;;;;10.38;4.85;;;20.70;22.40;;;;;;5054022;28;20363;-77